Time;durP1;ratioP1;P1;durP2;ratioP2;P2;SDS_P1;SDS_P2;PMS_P1;PMS_P2;Temp;Humidity;BMP_temperature;BMP_pressure;BME280_temperature;BME280_humidity;BME280_pressure;Samples;Min_cycle;Max_cycle;Signal;HPM_P1;HPM_P2
2023/05/16 00:01:07;;;;;;;12.52;9.00;;;8.90;99.90;;;;;;5074790;28;20420;-81
2023/05/16 00:03:33;;;;;;;10.75;9.35;;;8.90;99.90;;;;;;5056849;28;20020;-80
2023/05/16 00:06:01;;;;;;;13.82;11.18;;;8.80;99.90;;;;;;5074847;28;20443;-80
2023/05/16 00:08:27;;;;;;;14.13;9.82;;;8.80;99.90;;;;;;5056858;28;20060;-80
2023/05/16 00:10:52;;;;;;;13.50;9.77;;;8.80;99.90;;;;;;5074689;28;20056;-80
2023/05/16 00:13:24;;;;;;;14.38;10.52;;;8.80;99.90;;;;;;5074646;28;20029;-80
2023/05/16 00:15:54;;;;;;;13.63;10.48;;;8.70;99.90;;;;;;5074451;28;20031;-81
2023/05/16 00:18:21;;;;;;;12.55;9.15;;;8.80;99.90;;;;;;5040191;28;20075;-80
2023/05/16 00:20:47;;;;;;;16.00;10.98;;;8.70;99.90;;;;;;5054477;28;20021;-80
2023/05/16 00:23:13;;;;;;;12.13;10.35;;;8.70;99.90;;;;;;5054446;28;20025;-80
2023/05/16 00:25:39;;;;;;;13.85;10.15;;;8.70;99.90;;;;;;5036384;28;20029;-80
2023/05/16 00:28:05;;;;;;;14.30;10.50;;;8.60;99.90;;;;;;5036409;28;20032;-81
2023/05/16 00:30:31;;;;;;;14.18;10.48;;;8.70;99.90;;;;;;5054436;28;20025;-80
2023/05/16 00:32:57;;;;;;;14.40;10.27;;;8.70;99.90;;;;;;5054317;28;20048;-80
2023/05/16 00:35:22;;;;;;;14.18;10.55;;;8.70;99.90;;;;;;5036258;28;20114;-80
2023/05/16 00:37:49;;;;;;;12.30;9.88;;;8.70;99.90;;;;;;5054208;28;20050;-80
2023/05/16 00:40:15;;;;;;;13.75;9.73;;;8.60;99.90;;;;;;5036308;28;20108;-81
2023/05/16 00:42:41;;;;;;;14.55;9.60;;;8.60;99.90;;;;;;5036138;28;20108;-80
2023/05/16 00:45:08;;;;;;;14.38;9.50;;;8.50;99.90;;;;;;5036204;28;20167;-80
2023/05/16 00:47:34;;;;;;;16.50;8.82;;;8.50;99.90;;;;;;5036190;28;20017;-80
2023/05/16 00:50:00;;;;;;;13.85;10.15;;;8.50;99.90;;;;;;5054010;28;20048;-80
2023/05/16 00:52:26;;;;;;;16.13;11.63;;;8.50;99.90;;;;;;5054136;28;20517;-80
2023/05/16 00:54:52;;;;;;;13.88;10.75;;;8.40;99.90;;;;;;5053689;28;20033;-80
2023/05/16 00:57:18;;;;;;;16.75;10.85;;;8.40;99.90;;;;;;5053754;28;20020;-80
2023/05/16 00:59:45;;;;;;;20.98;12.60;;;8.40;99.90;;;;;;5035942;28;20437;-80
2023/05/16 01:02:11;;;;;;;16.90;11.85;;;8.40;99.90;;;;;;5035978;28;20017;-81
2023/05/16 01:04:38;;;;;;;18.10;12.43;;;8.50;99.90;;;;;;5053797;28;20512;-80
2023/05/16 01:07:04;;;;;;;17.33;12.45;;;8.40;99.90;;;;;;5048712;28;20429;-80
2023/05/16 01:09:30;;;;;;;13.93;11.45;;;8.40;99.90;;;;;;5033714;28;20025;-80
2023/05/16 01:12:02;;;;;;;17.88;11.90;;;8.40;99.90;;;;;;5033659;28;20018;-80
2023/05/16 01:14:57;;;;;;;14.55;10.27;;;8.40;99.90;;;;;;5033654;28;20104;-80
2023/05/16 01:17:38;;;;;;;16.02;10.48;;;8.40;99.90;;;;;;5024254;28;20581;-80
2023/05/16 01:20:29;;;;;;;16.35;11.38;;;8.30;99.90;;;;;;5035560;28;20078;-81
2023/05/16 01:23:13;;;;;;;17.67;10.70;;;8.30;99.90;;;;;;5035567;28;20053;-80
2023/05/16 01:26:04;;;;;;;13.02;10.25;;;8.20;99.90;;;;;;5053398;28;20512;-80
2023/05/16 01:28:30;;;;;;;18.80;11.57;;;8.20;99.90;;;;;;5035409;28;20533;-81
2023/05/16 01:30:55;;;;;;;16.10;10.68;;;8.10;99.90;;;;;;5035427;28;20363;-80
2023/05/16 01:33:21;;;;;;;15.85;10.95;;;8.10;99.90;;;;;;5035503;28;20021;-81
2023/05/16 01:35:57;;;;;;;13.48;10.30;;;8.00;99.90;;;;;;5035268;28;20064;-80
2023/05/16 01:38:32;;;;;;;16.35;10.95;;;8.00;99.90;;;;;;5035277;28;20078;-81
2023/05/16 01:41:24;;;;;;;12.00;9.43;;;8.00;99.90;;;;;;5035463;28;20200;-81
2023/05/16 01:43:54;;;;;;;12.57;10.18;;;7.90;99.90;;;;;;5049119;28;20041;-81
2023/05/16 01:46:25;;;;;;;11.27;8.38;;;7.90;99.90;;;;;;5053187;28;20021;-80
2023/05/16 01:49:25;;;;;;;12.20;9.55;;;7.80;99.90;;;;;;5035282;28;20057;-80
2023/05/16 01:51:55;;;;;;;9.73;7.05;;;7.80;99.90;;;;;;5053084;28;20017;-81
2023/05/16 01:54:25;;;;;;;10.68;7.68;;;7.70;99.90;;;;;;5035076;28;20029;-80
2023/05/16 01:56:52;;;;;;;13.48;8.82;;;7.70;99.90;;;;;;5035057;28;20032;-80
2023/05/16 01:59:20;;;;;;;12.70;9.18;;;7.60;99.90;;;;;;5035230;28;20056;-80
2023/05/16 02:01:46;;;;;;;11.38;8.77;;;7.60;99.90;;;;;;5035015;28;20117;-80
2023/05/16 02:04:14;;;;;;;11.45;8.48;;;7.50;99.90;;;;;;5035014;28;20052;-81
2023/05/16 02:06:39;;;;;;;14.15;9.57;;;7.50;99.90;;;;;;5035013;28;20359;-80
2023/05/16 02:09:05;;;;;;;14.95;10.65;;;7.40;99.90;;;;;;5034956;28;20067;-80
2023/05/16 02:11:31;;;;;;;18.98;12.30;;;7.40;99.90;;;;;;5052935;28;20382;-80
2023/05/16 02:13:57;;;;;;;13.70;9.57;;;7.40;99.90;;;;;;5034924;28;20477;-81
2023/05/16 02:16:22;;;;;;;9.30;6.28;;;7.30;99.90;;;;;;5034719;28;20455;-80
2023/05/16 02:18:48;;;;;;;9.15;7.35;;;7.20;99.90;;;;;;5035010;28;20466;-80
2023/05/16 02:21:13;;;;;;;8.73;6.28;;;7.20;99.90;;;;;;5052789;28;20056;-80
2023/05/16 02:23:39;;;;;;;6.20;5.30;;;7.10;99.90;;;;;;5035073;28;20025;-80
2023/05/16 02:26:05;;;;;;;5.88;5.30;;;7.00;99.90;;;;;;5052727;28;20021;-80
2023/05/16 02:28:30;;;;;;;8.80;6.38;;;7.00;99.90;;;;;;5034889;28;20025;-80
2023/05/16 02:30:59;;;;;;;8.75;6.32;;;6.90;99.90;;;;;;5052763;28;20027;-80
2023/05/16 02:33:27;;;;;;;6.78;6.18;;;6.90;99.90;;;;;;5053941;28;20035;-80
2023/05/16 02:35:53;;;;;;;7.45;6.03;;;6.80;99.90;;;;;;5038677;28;20032;-80
2023/05/16 02:38:19;;;;;;;6.50;5.80;;;6.80;99.90;;;;;;5038604;28;20029;-80
2023/05/16 02:40:46;;;;;;;6.57;5.82;;;6.70;99.90;;;;;;5056421;28;20018;-80
2023/05/16 02:43:12;;;;;;;9.38;5.93;;;6.70;99.90;;;;;;5038479;28;20040;-80
2023/05/16 02:45:38;;;;;;;10.23;7.00;;;6.70;99.90;;;;;;5056288;28;20033;-81
2023/05/16 02:48:03;;;;;;;8.45;6.50;;;6.70;99.90;;;;;;5056265;28;20370;-80
2023/05/16 02:50:29;;;;;;;8.05;6.07;;;6.70;99.90;;;;;;5038391;28;20025;-81
2023/05/16 02:52:55;;;;;;;8.18;7.07;;;6.70;99.90;;;;;;5056167;28;20021;-81
2023/05/16 02:55:21;;;;;;;12.23;8.07;;;6.70;99.90;;;;;;5056087;28;20535;-80
2023/05/16 02:57:46;;;;;;;10.05;6.45;;;6.70;99.90;;;;;;5038256;28;20009;-81
2023/05/16 03:00:13;;;;;;;9.23;6.35;;;6.70;99.90;;;;;;5038250;28;20056;-80
2023/05/16 03:02:38;;;;;;;7.47;5.80;;;6.70;99.90;;;;;;5038071;28;20025;-80
2023/05/16 03:05:05;;;;;;;7.13;5.78;;;6.70;99.90;;;;;;5038030;28;20044;-81
2023/05/16 03:07:31;;;;;;;5.43;4.88;;;6.70;99.90;;;;;;5038027;28;20028;-81
2023/05/16 03:09:56;;;;;;;5.95;4.90;;;6.60;99.90;;;;;;5037857;28;20025;-81
2023/05/16 03:12:22;;;;;;;7.95;5.07;;;6.60;99.90;;;;;;5037862;28;20098;-80
2023/05/16 03:14:47;;;;;;;5.47;4.97;;;6.50;99.90;;;;;;5037859;28;20149;-80
2023/05/16 03:17:13;;;;;;;6.60;5.32;;;6.50;99.90;;;;;;5055647;28;20076;-80
2023/05/16 03:19:38;;;;;;;7.55;4.97;;;6.50;99.90;;;;;;5055625;28;20017;-80
2023/05/16 03:22:04;;;;;;;7.97;5.47;;;6.50;99.90;;;;;;5037733;28;20024;-80
2023/05/16 03:24:30;;;;;;;9.07;6.28;;;6.60;99.90;;;;;;5055780;28;20082;-80
2023/05/16 03:26:56;;;;;;;7.95;5.90;;;6.60;99.90;;;;;;5055478;28;20033;-80
2023/05/16 03:29:21;;;;;;;8.48;5.68;;;6.60;99.90;;;;;;5037516;28;20112;-81
2023/05/16 03:31:47;;;;;;;7.47;6.40;;;6.70;99.90;;;;;;5055281;28;20108;-80
2023/05/16 03:34:12;;;;;;;7.30;5.82;;;6.70;99.90;;;;;;5037542;28;20478;-80
2023/05/16 03:36:40;;;;;;;8.23;6.25;;;6.80;99.90;;;;;;5055483;28;20029;-80
2023/05/16 03:39:07;;;;;;;9.10;6.50;;;6.80;99.90;;;;;;5055179;28;20056;-80
2023/05/16 03:41:33;;;;;;;9.38;5.97;;;6.90;99.90;;;;;;5037448;28;20478;-80
2023/05/16 03:43:59;;;;;;;8.18;6.10;;;7.10;99.90;;;;;;5054743;28;20378;-81
2023/05/16 03:46:24;;;;;;;7.28;5.50;;;7.30;99.90;;;;;;5037316;28;20095;-81
2023/05/16 03:48:50;;;;;;;7.60;5.82;;;7.40;99.90;;;;;;5037132;28;20112;-81
2023/05/16 03:51:15;;;;;;;9.73;6.97;;;7.60;99.90;;;;;;5055013;28;20108;-81
2023/05/16 03:53:41;;;;;;;10.73;6.65;;;7.80;99.90;;;;;;5037153;28;20028;-81
2023/05/16 03:56:07;;;;;;;6.60;5.25;;;8.00;99.90;;;;;;5036999;28;20029;-81
2023/05/16 03:58:32;;;;;;;10.25;6.13;;;8.10;99.90;;;;;;5037223;28;20071;-81
2023/05/16 04:00:58;;;;;;;9.30;6.38;;;8.30;99.90;;;;;;5055004;28;20104;-81
2023/05/16 04:03:27;;;;;;;11.07;6.40;;;8.50;99.90;;;;;;5036879;28;20021;-81
2023/05/16 04:05:54;;;;;;;13.57;9.13;;;8.60;99.90;;;;;;5036946;28;20025;-80
2023/05/16 04:08:20;;;;;;;10.63;7.80;;;8.90;99.90;;;;;;5036885;28;20120;-81
2023/05/16 04:10:46;;;;;;;8.95;6.68;;;9.00;99.90;;;;;;5054820;28;20045;-81
2023/05/16 04:13:11;;;;;;;9.07;6.22;;;9.10;99.90;;;;;;5036704;28;20075;-81
2023/05/16 04:15:37;;;;;;;5.20;4.70;;;9.20;99.90;;;;;;5054349;28;20108;-81
2023/05/16 04:18:03;;;;;;;13.75;7.55;;;9.30;99.90;;;;;;5036785;28;20076;-81
2023/05/16 04:20:29;;;;;;;6.40;5.00;;;9.40;99.90;;;;;;5036718;28;20017;-81
2023/05/16 04:22:55;;;;;;;5.75;4.90;;;9.50;99.90;;;;;;5036520;28;20043;-81
2023/05/16 04:25:20;;;;;;;8.02;5.15;;;9.60;99.90;;;;;;5036505;28;20017;-81
2023/05/16 04:27:46;;;;;;;11.15;6.75;;;9.60;99.90;;;;;;5036607;28;20021;-82
2023/05/16 04:30:13;;;;;;;9.57;6.38;;;9.50;99.90;;;;;;5054394;28;20021;-81
2023/05/16 04:32:38;;;;;;;7.45;6.57;;;9.60;99.90;;;;;;5036346;28;20036;-81
2023/05/16 04:35:04;;;;;;;9.98;6.60;;;9.70;99.90;;;;;;5036255;28;20029;-81
2023/05/16 04:37:30;;;;;;;9.77;6.50;;;9.80;99.90;;;;;;5036229;28;20024;-81
2023/05/16 04:39:56;;;;;;;10.93;7.88;;;9.90;99.90;;;;;;5054081;28;20108;-80
2023/05/16 04:42:21;;;;;;;9.77;7.82;;;9.90;99.90;;;;;;5036115;28;20108;-80
2023/05/16 04:44:47;;;;;;;11.88;8.85;;;10.00;99.90;;;;;;5036298;28;20084;-81
2023/05/16 04:47:13;;;;;;;10.82;9.23;;;10.10;99.90;;;;;;5036161;28;20020;-81
2023/05/16 04:49:38;;;;;;;11.80;8.40;;;10.20;99.90;;;;;;5036092;28;20403;-81
2023/05/16 04:52:07;;;;;;;13.20;9.05;;;10.20;99.90;;;;;;5053978;28;20017;-82
2023/05/16 04:54:33;;;;;;;11.60;8.63;;;10.30;99.90;;;;;;5053798;28;20033;-83
2023/05/16 04:56:58;;;;;;;13.20;9.32;;;10.50;99.90;;;;;;5053124;28;20120;-81
2023/05/16 04:59:24;;;;;;;12.63;8.93;;;10.70;99.90;;;;;;5053795;28;20024;-81
2023/05/16 05:01:50;;;;;;;12.68;9.15;;;10.80;99.90;;;;;;5035884;28;20466;-82
2023/05/16 05:04:16;;;;;;;12.30;8.48;;;11.00;99.90;;;;;;5035958;28;20028;-82
2023/05/16 05:06:42;;;;;;;10.55;9.20;;;11.20;99.90;;;;;;5053674;28;20079;-82
2023/05/16 05:09:08;;;;;;;13.48;9.02;;;11.30;99.90;;;;;;5035840;28;20024;-82
2023/05/16 05:11:34;;;;;;;12.70;9.50;;;11.40;99.90;;;;;;5053556;28;20059;-79
2023/05/16 05:14:00;;;;;;;11.13;9.25;;;11.50;99.90;;;;;;5053552;28;20107;-79
2023/05/16 05:16:26;;;;;;;14.35;10.35;;;11.70;99.90;;;;;;5053302;28;20033;-79
2023/05/16 05:18:51;;;;;;;12.98;10.10;;;11.70;99.90;;;;;;5066093;28;20436;-79
2023/05/16 05:21:19;;;;;;;11.90;9.13;;;11.80;99.90;;;;;;5073306;28;20509;-78
2023/05/16 05:23:45;;;;;;;11.82;9.55;;;11.90;99.90;;;;;;5073395;28;20041;-78
2023/05/16 05:26:10;;;;;;;11.68;9.35;;;12.00;99.90;;;;;;5034781;28;20045;-78
2023/05/16 05:28:36;;;;;;;14.50;10.13;;;12.20;99.90;;;;;;5034874;28;20028;-79
2023/05/16 05:31:04;;;;;;;13.40;10.25;;;12.20;99.90;;;;;;5050986;28;20017;-79
2023/05/16 05:33:29;;;;;;;10.70;9.60;;;12.30;99.90;;;;;;5033572;28;20474;-78
2023/05/16 05:35:55;;;;;;;11.63;10.20;;;12.40;99.90;;;;;;5051611;28;20078;-79
2023/05/16 05:38:21;;;;;;;11.07;9.43;;;12.50;99.90;;;;;;5033540;28;20016;-78
2023/05/16 05:40:48;;;;;;;13.73;10.05;;;12.60;99.90;;;;;;5051553;28;20036;-78
2023/05/16 05:43:14;;;;;;;15.20;10.88;;;12.70;99.90;;;;;;5051387;28;20020;-78
2023/05/16 05:45:40;;;;;;;13.55;9.25;;;12.80;99.90;;;;;;5033493;28;20036;-77
2023/05/16 05:48:06;;;;;;;14.35;11.43;;;12.80;99.90;;;;;;5051230;28;20021;-80
2023/05/16 05:50:31;;;;;;;17.33;11.27;;;13.00;99.90;;;;;;5033761;28;20017;-78
2023/05/16 05:52:57;;;;;;;14.45;10.70;;;13.10;99.90;;;;;;5051528;28;20668;-80
2023/05/16 05:55:23;;;;;;;14.73;10.52;;;13.30;99.90;;;;;;5052114;28;20048;-80
2023/05/16 05:57:48;;;;;;;16.15;12.18;;;13.40;99.90;;;;;;5033453;28;20130;-79
2023/05/16 06:00:14;;;;;;;22.25;12.40;;;13.60;99.90;;;;;;5051352;28;20032;-79
2023/05/16 06:02:40;;;;;;;17.83;10.82;;;13.60;99.90;;;;;;5051209;28;20047;-79
2023/05/16 06:05:06;;;;;;;12.85;10.13;;;13.60;99.90;;;;;;5030866;28;20080;-80
2023/05/16 06:07:31;;;;;;;16.05;11.30;;;13.80;99.90;;;;;;5036225;28;20486;-79
2023/05/16 06:09:57;;;;;;;16.27;10.30;;;13.90;99.90;;;;;;5056824;28;20055;-79
2023/05/16 06:12:23;;;;;;;13.10;11.30;;;14.00;99.90;;;;;;5058808;28;20397;-80
2023/05/16 06:14:48;;;;;;;13.95;10.35;;;14.20;99.90;;;;;;5043174;28;20045;-81
2023/05/16 06:17:14;;;;;;;12.43;10.50;;;14.20;99.90;;;;;;5055078;28;20045;-79
2023/05/16 06:19:39;;;;;;;12.93;9.68;;;14.40;99.90;;;;;;5055020;28;20083;-80
2023/05/16 06:22:05;;;;;;;13.68;10.30;;;14.50;99.90;;;;;;5058411;28;20029;-80
2023/05/16 06:24:31;;;;;;;11.30;8.82;;;14.50;99.90;;;;;;5037569;28;20021;-80
2023/05/16 06:26:56;;;;;;;10.80;8.32;;;14.70;99.90;;;;;;5057606;28;20074;-80
2023/05/16 06:29:22;;;;;;;12.15;9.88;;;14.80;98.10;;;;;;5060578;28;20074;-79
2023/05/16 06:31:48;;;;;;;13.63;9.00;;;15.00;99.00;;;;;;5037466;28;20021;-78
2023/05/16 06:34:14;;;;;;;13.57;9.77;;;15.10;97.40;;;;;;5054706;28;20029;-79
2023/05/16 06:36:39;;;;;;;9.63;8.13;;;15.20;94.40;;;;;;5047100;28;20037;-79
2023/05/16 06:39:05;;;;;;;12.98;9.50;;;15.20;93.90;;;;;;5054997;28;20040;-78
2023/05/16 06:41:31;;;;;;;13.95;8.25;;;15.30;96.50;;;;;;5035339;28;20025;-79
2023/05/16 06:43:56;;;;;;;11.60;9.13;;;15.30;95.90;;;;;;5036285;28;20029;-78
2023/05/16 06:46:22;;;;;;;13.68;9.52;;;15.50;96.70;;;;;;5036243;28;20074;-80
2023/05/16 06:48:48;;;;;;;12.00;8.57;;;15.70;98.20;;;;;;5054277;28;20480;-80
2023/05/16 06:51:13;;;;;;;12.13;8.20;;;15.70;96.30;;;;;;5036295;28;20020;-78
2023/05/16 06:53:39;;;;;;;16.58;9.02;;;15.90;93.20;;;;;;5053366;28;20033;-79
2023/05/16 06:56:05;;;;;;;11.70;8.25;;;16.10;89.10;;;;;;5053476;28;20375;-79
2023/05/16 06:58:30;;;;;;;10.15;8.55;;;16.20;85.30;;;;;;5034279;28;20025;-79
2023/05/16 07:00:56;;;;;;;11.98;9.50;;;16.10;83.90;;;;;;5039303;28;20025;-79
2023/05/16 07:03:22;;;;;;;10.20;7.95;;;16.10;86.40;;;;;;5034007;28;20087;-79
2023/05/16 07:05:50;;;;;;;9.27;7.43;;;16.10;85.70;;;;;;5036029;28;20013;-78
2023/05/16 07:08:15;;;;;;;9.98;7.47;;;16.20;85.10;;;;;;5062343;28;20025;-78
2023/05/16 07:10:41;;;;;;;8.68;6.65;;;16.40;84.00;;;;;;5054798;28;20024;-78
2023/05/16 07:13:07;;;;;;;11.48;7.35;;;16.60;81.70;;;;;;5054779;28;20040;-79
2023/05/16 07:15:33;;;;;;;9.32;7.05;;;16.80;82.60;;;;;;5053859;28;20068;-78
2023/05/16 07:17:59;;;;;;;8.85;6.10;;;16.80;79.20;;;;;;5054400;28;20095;-78
2023/05/16 07:20:25;;;;;;;7.72;6.78;;;17.00;78.90;;;;;;5051118;28;20021;-80
2023/05/16 07:22:50;;;;;;;10.52;7.38;;;17.10;77.20;;;;;;5036652;28;20120;-79
2023/05/16 07:25:16;;;;;;;10.15;6.70;;;17.20;75.30;;;;;;5036902;28;20025;-80
2023/05/16 07:27:43;;;;;;;7.82;5.78;;;17.40;75.50;;;;;;5036219;28;20025;-80
2023/05/16 07:30:10;;;;;;;8.43;6.82;;;17.50;73.00;;;;;;5054032;28;20078;-80
2023/05/16 07:32:36;;;;;;;10.55;7.25;;;17.30;69.10;;;;;;5062609;28;20041;-78
2023/05/16 07:35:03;;;;;;;8.38;6.50;;;17.30;71.00;;;;;;5056376;28;20063;-80
2023/05/16 07:37:29;;;;;;;6.90;6.20;;;17.40;71.20;;;;;;5065239;28;20033;-80
2023/05/16 07:39:55;;;;;;;7.78;6.85;;;17.40;70.60;;;;;;5053805;28;20075;-80
2023/05/16 07:42:20;;;;;;;7.25;6.55;;;17.40;69.60;;;;;;5036081;28;20432;-80
2023/05/16 07:44:46;;;;;;;9.95;6.20;;;17.50;69.90;;;;;;5053719;28;20029;-80
2023/05/16 07:47:12;;;;;;;8.38;6.78;;;17.70;72.20;;;;;;5035126;28;20032;-80
2023/05/16 07:49:37;;;;;;;8.68;6.15;;;17.70;71.70;;;;;;5052395;28;20017;-79
2023/05/16 07:52:03;;;;;;;7.18;6.22;;;17.90;71.90;;;;;;5053110;28;20017;-80
2023/05/16 07:54:30;;;;;;;7.70;5.65;;;18.10;72.90;;;;;;5034205;28;20060;-79
2023/05/16 07:56:56;;;;;;;10.02;6.38;;;18.30;72.70;;;;;;5037913;28;20031;-80
2023/05/16 07:59:21;;;;;;;9.95;6.15;;;18.40;71.30;;;;;;5058658;28;20100;-78
2023/05/16 08:01:47;;;;;;;8.30;7.28;;;18.30;68.30;;;;;;5062174;28;20028;-80
2023/05/16 08:04:13;;;;;;;6.88;6.28;;;18.20;67.20;;;;;;5069859;28;20037;-79
2023/05/16 08:06:38;;;;;;;6.65;5.88;;;18.20;67.00;;;;;;5054712;28;20475;-77
2023/05/16 08:09:04;;;;;;;7.63;6.88;;;18.20;68.50;;;;;;5034716;28;20040;-80
2023/05/16 08:11:30;;;;;;;6.82;6.05;;;18.30;69.00;;;;;;5054572;28;20017;-80
2023/05/16 08:13:55;;;;;;;6.70;5.97;;;18.40;67.50;;;;;;5056234;28;20474;-80
2023/05/16 08:16:21;;;;;;;10.10;6.30;;;18.60;68.50;;;;;;5052828;28;20057;-81
2023/05/16 08:18:47;;;;;;;6.13;5.55;;;18.80;71.10;;;;;;5034110;28;20437;-80
2023/05/16 08:21:13;;;;;;;7.20;6.25;;;18.70;66.60;;;;;;5034059;28;20395;-80
2023/05/16 08:23:39;;;;;;;7.60;6.03;;;18.50;65.90;;;;;;5034420;28;20020;-81
2023/05/16 08:26:05;;;;;;;7.78;6.40;;;18.50;67.40;;;;;;5052441;28;20052;-81
2023/05/16 08:28:30;;;;;;;7.32;6.63;;;18.70;67.60;;;;;;5035934;28;20067;-79
2023/05/16 08:30:56;;;;;;;8.07;6.32;;;18.80;68.80;;;;;;5035697;28;20496;-79
2023/05/16 08:33:21;;;;;;;8.13;6.20;;;18.70;66.50;;;;;;5053692;28;20028;-79
2023/05/16 08:35:48;;;;;;;6.93;6.18;;;18.80;65.30;;;;;;5053376;28;20033;-79
2023/05/16 08:38:14;;;;;;;6.93;5.82;;;18.70;64.90;;;;;;5036052;28;20367;-79
2023/05/16 08:40:41;;;;;;;10.98;6.25;;;18.70;63.90;;;;;;5035122;28;20033;-78
2023/05/16 08:43:07;;;;;;;9.68;7.07;;;18.50;64.20;;;;;;5034122;28;20025;-78
2023/05/16 08:45:33;;;;;;;7.00;6.30;;;18.70;65.40;;;;;;5034608;28;20024;-79
2023/05/16 08:48:00;;;;;;;6.53;5.93;;;18.80;65.40;;;;;;5052711;28;20087;-79
2023/05/16 08:50:30;;;;;;;7.13;6.30;;;19.00;65.50;;;;;;5035831;28;20021;-79
2023/05/16 08:52:56;;;;;;;8.05;6.05;;;19.20;65.30;;;;;;5053760;28;20367;-81
2023/05/16 08:55:23;;;;;;;8.07;5.88;;;19.40;65.10;;;;;;5022056;28;20044;-81
2023/05/16 08:57:50;;;;;;;7.03;6.32;;;19.60;63.80;;;;;;5015810;28;20037;-79
2023/05/16 09:00:18;;;;;;;12.98;6.28;;;19.70;62.90;;;;;;5042088;28;20013;-79
2023/05/16 09:02:44;;;;;;;6.20;5.60;;;19.60;61.60;;;;;;5034117;28;20014;-79
2023/05/16 09:05:13;;;;;;;7.05;6.43;;;19.80;61.40;;;;;;5051881;28;20709;-79
2023/05/16 09:07:39;;;;;;;9.38;6.00;;;19.90;61.40;;;;;;5033829;28;20017;-79
2023/05/16 09:10:08;;;;;;;6.53;5.72;;;19.90;61.80;;;;;;5051891;28;20033;-79
2023/05/16 09:12:35;;;;;;;5.50;5.10;;;20.00;61.30;;;;;;5031530;28;20021;-79
2023/05/16 09:15:06;;;;;;;6.45;5.82;;;20.10;61.70;;;;;;5051673;28;20037;-79
2023/05/16 09:17:40;;;;;;;9.55;6.28;;;20.10;62.10;;;;;;5051238;28;20506;-81
2023/05/16 09:20:10;;;;;;;8.48;6.38;;;20.20;60.80;;;;;;5051658;28;20024;-81
2023/05/16 09:22:36;;;;;;;7.70;5.45;;;20.20;60.40;;;;;;5049318;28;20021;-81
2023/05/16 09:25:03;;;;;;;6.90;6.20;;;20.00;60.40;;;;;;5033393;28;20480;-80
2023/05/16 09:27:30;;;;;;;6.28;5.68;;;20.00;60.60;;;;;;5051402;28;20060;-80
2023/05/16 09:30:00;;;;;;;7.70;5.90;;;19.90;60.40;;;;;;5051489;28;20025;-80
2023/05/16 09:32:25;;;;;;;6.50;5.80;;;20.10;60.40;;;;;;5033730;28;20021;-80
2023/05/16 09:34:53;;;;;;;5.95;5.28;;;20.10;59.40;;;;;;5054710;28;20028;-81
2023/05/16 09:37:19;;;;;;;6.68;5.43;;;20.10;58.20;;;;;;5036307;28;20060;-80
2023/05/16 09:39:49;;;;;;;6.97;5.60;;;20.20;57.60;;;;;;5052963;28;20060;-81
2023/05/16 09:42:16;;;;;;;5.97;5.40;;;20.30;58.50;;;;;;5052583;28;20037;-80
2023/05/16 09:44:49;;;;;;;8.65;6.22;;;20.40;57.00;;;;;;5036485;28;20079;-79
2023/05/16 09:47:16;;;;;;;9.80;5.18;;;20.30;56.70;;;;;;5014919;28;20082;-80
2023/05/16 09:49:44;;;;;;;6.57;5.10;;;20.30;56.40;;;;;;5015363;28;20022;-79
2023/05/16 09:52:09;;;;;;;6.10;5.10;;;20.50;57.60;;;;;;5033138;28;20078;-79
2023/05/16 09:54:35;;;;;;;5.75;5.25;;;20.70;57.30;;;;;;5032616;28;20453;-80
2023/05/16 09:57:01;;;;;;;5.72;4.80;;;20.90;57.80;;;;;;5031163;28;20025;-80
2023/05/16 09:59:30;;;;;;;7.25;5.25;;;21.10;57.60;;;;;;5031242;28;20025;-79
2023/05/16 10:01:59;;;;;;;7.72;5.05;;;21.10;55.70;;;;;;5013342;28;20037;-80
2023/05/16 10:04:25;;;;;;;5.35;4.85;;;21.20;56.70;;;;;;5031101;28;20076;-80
2023/05/16 10:06:52;;;;;;;4.85;4.45;;;21.20;55.60;;;;;;5013374;28;20025;-79
2023/05/16 10:09:19;;;;;;;5.43;5.00;;;21.10;56.30;;;;;;5013332;28;20105;-80
2023/05/16 10:11:47;;;;;;;6.25;4.60;;;21.20;56.00;;;;;;5015085;28;20034;-80
2023/05/16 10:14:16;;;;;;;6.95;4.68;;;21.10;54.10;;;;;;5015436;28;20033;-79
2023/05/16 10:16:43;;;;;;;6.97;4.28;;;21.10;53.90;;;;;;5032653;28;20143;-79
2023/05/16 10:19:10;;;;;;;7.85;4.50;;;21.20;52.70;;;;;;5015277;28;20030;-81
2023/05/16 10:21:37;;;;;;;5.75;4.60;;;20.90;52.20;;;;;;5015209;28;20076;-79
2023/05/16 10:24:06;;;;;;;4.65;4.15;;;20.90;51.60;;;;;;5033008;28;20385;-79
2023/05/16 10:26:32;;;;;;;6.70;4.65;;;20.90;52.20;;;;;;5015142;28;20018;-79
2023/05/16 10:29:01;;;;;;;5.07;4.47;;;21.00;52.70;;;;;;5015220;28;20067;-79
2023/05/16 10:31:28;;;;;;;5.70;4.68;;;21.20;53.30;;;;;;5015044;28;20025;-79
2023/05/16 10:33:56;;;;;;;8.18;4.40;;;21.30;54.00;;;;;;5019466;28;20029;-79
2023/05/16 10:36:22;;;;;;;4.60;4.20;;;21.20;52.30;;;;;;5049336;28;20037;-81
2023/05/16 10:38:49;;;;;;;4.68;4.28;;;21.20;51.70;;;;;;5024079;28;20057;-81
2023/05/16 10:41:16;;;;;;;5.45;4.00;;;21.30;52.80;;;;;;5050495;28;20052;-80
2023/05/16 10:43:45;;;;;;;7.50;4.75;;;21.20;52.70;;;;;;5050478;28;20056;-81
2023/05/16 10:46:11;;;;;;;6.97;4.18;;;21.20;50.90;;;;;;5033201;28;20031;-80
2023/05/16 10:48:41;;;;;;;5.28;4.35;;;21.10;52.30;;;;;;5050289;28;20064;-80
2023/05/16 10:51:22;;;;;;;4.85;4.45;;;21.10;53.70;;;;;;5032094;28;20037;-81
2023/05/16 10:53:50;;;;;;;4.38;3.92;;;21.20;53.50;;;;;;5031475;28;20049;-81
2023/05/16 10:56:25;;;;;;;4.53;4.13;;;21.20;52.90;;;;;;5035436;28;20449;-80
2023/05/16 10:58:52;;;;;;;5.55;4.05;;;20.90;50.50;;;;;;5051364;28;20113;-79
2023/05/16 11:01:24;;;;;;;5.10;4.60;;;20.70;51.20;;;;;;5053348;28;20390;-80
2023/05/16 11:03:56;;;;;;;6.78;4.15;;;20.70;52.80;;;;;;5040357;28;20115;-79
2023/05/16 11:06:50;;;;;;;7.57;3.90;;;20.80;52.90;;;;;;5037543;28;20032;-80
2023/05/16 11:09:18;;;;;;;6.68;4.40;;;20.70;50.60;;;;;;5048345;28;20021;-79
2023/05/16 11:11:57;;;;;;;4.85;3.97;;;20.80;51.20;;;;;;5054629;28;20055;-79
2023/05/16 11:14:23;;;;;;;7.82;4.43;;;21.00;50.60;;;;;;5054511;28;20024;-79
2023/05/16 11:16:59;;;;;;;4.13;3.38;;;21.20;50.50;;;;;;5053860;28;20124;-77
2023/05/16 11:19:34;;;;;;;5.32;3.38;;;21.20;49.50;;;;;;5036421;28;20052;-80
2023/05/16 11:22:06;;;;;;;4.78;3.30;;;20.90;47.20;;;;;;5054599;28;20033;-80
2023/05/16 11:24:34;;;;;;;4.88;3.10;;;21.00;47.60;;;;;;5034898;28;20381;-79
2023/05/16 11:27:01;;;;;;;3.55;3.25;;;21.20;48.30;;;;;;5052263;28;20121;-80
2023/05/16 11:29:34;;;;;;;3.20;3.00;;;21.00;47.00;;;;;;5034934;28;20044;-79
2023/05/16 11:32:02;;;;;;;5.25;3.00;;;21.30;47.50;;;;;;5054005;28;20029;-78
2023/05/16 11:34:29;;;;;;;3.10;2.90;;;21.20;47.40;;;;;;5059360;28;20113;-77
2023/05/16 11:36:55;;;;;;;4.30;3.33;;;21.00;45.20;;;;;;5054428;28;20433;-80
2023/05/16 11:39:23;;;;;;;7.68;3.40;;;21.20;46.60;;;;;;5034820;28;20082;-79
2023/05/16 11:41:50;;;;;;;3.17;2.92;;;21.00;46.40;;;;;;5052934;28;20429;-79
2023/05/16 11:44:16;;;;;;;3.63;3.13;;;20.90;46.90;;;;;;5053151;28;20027;-79
2023/05/16 11:46:41;;;;;;;3.75;3.13;;;21.00;47.10;;;;;;5034874;28;20116;-79
2023/05/16 11:49:11;;;;;;;4.20;3.40;;;21.00;46.90;;;;;;5052985;28;20024;-79
2023/05/16 11:51:40;;;;;;;3.38;3.05;;;20.90;47.10;;;;;;5034842;28;20044;-80
2023/05/16 11:54:09;;;;;;;3.97;2.53;;;21.00;46.70;;;;;;5052913;28;20025;-79
2023/05/16 11:56:35;;;;;;;4.25;3.13;;;20.80;45.80;;;;;;5070473;28;20068;-79
2023/05/16 11:59:02;;;;;;;4.93;3.20;;;20.80;45.40;;;;;;5056331;28;20374;-79
2023/05/16 12:01:36;;;;;;;5.18;3.17;;;20.70;45.30;;;;;;5055113;28;20029;-80
2023/05/16 12:04:06;;;;;;;3.72;3.42;;;20.70;46.30;;;;;;5037557;28;20029;-77
2023/05/16 12:06:32;;;;;;;4.35;3.75;;;20.80;47.70;;;;;;5046328;28;20051;-78
2023/05/16 12:08:58;;;;;;;4.63;3.42;;;20.70;48.50;;;;;;5035051;28;20104;-77
2023/05/16 12:11:25;;;;;;;4.32;3.78;;;20.80;50.30;;;;;;5056120;28;20120;-77
2023/05/16 12:13:51;;;;;;;4.82;4.30;;;20.80;49.70;;;;;;5032435;28;20510;-78
2023/05/16 12:16:17;;;;;;;4.32;3.92;;;20.90;50.60;;;;;;5055691;28;20036;-77
2023/05/16 12:18:43;;;;;;;6.53;4.28;;;20.80;51.40;;;;;;5037079;28;20524;-77
2023/05/16 12:21:08;;;;;;;5.45;4.95;;;20.70;51.10;;;;;;5047303;28;20032;-77
2023/05/16 12:23:34;;;;;;;4.63;4.22;;;20.70;52.70;;;;;;5054401;28;20029;-79
2023/05/16 12:26:05;;;;;;;4.50;4.10;;;20.80;53.20;;;;;;5035955;28;20155;-77
2023/05/16 12:28:38;;;;;;;4.85;4.22;;;20.70;54.30;;;;;;5033852;28;20036;-77
2023/05/16 12:31:10;;;;;;;;;;;20.60;52.40;;;;;;5036030;28;20024;-77
2023/05/16 12:33:36;;;;;;;5.32;3.97;;;20.50;51.20;;;;;;5053628;28;20277;-80
2023/05/16 12:36:03;;;;;;;5.32;3.65;;;20.60;52.60;;;;;;5044293;28;20040;-81
2023/05/16 12:38:29;;;;;;;4.00;3.60;;;20.30;52.20;;;;;;5036004;28;20548;-79
2023/05/16 12:40:58;;;;;;;6.22;4.32;;;20.30;53.10;;;;;;5035278;28;20070;-78
2023/05/16 12:43:24;;;;;;;6.55;3.83;;;20.40;53.90;;;;;;5053920;28;20052;-78
2023/05/16 12:45:54;;;;;;;5.57;3.92;;;20.40;53.40;;;;;;5034826;28;20013;-81